Time;durP1;ratioP1;P1;durP2;ratioP2;P2;SDS_P1;SDS_P2;PMS_P1;PMS_P2;Temp;Humidity;BMP_temperature;BMP_pressure;BME280_temperature;BME280_humidity;BME280_pressure;Samples;Min_cycle;Max_cycle;Signal;HPM_P1;HPM_P2
2022/05/26 00:02:05;;;;;;;1.85;0.50;;;13.70;98.10;;;;;;5074413;28;20083;-71
2022/05/26 00:04:30;;;;;;;2.75;0.50;;;13.70;98.10;;;;;;5074528;28;20065;-70
2022/05/26 00:06:56;;;;;;;5.50;1.02;;;13.70;98.20;;;;;;5079518;28;20048;-70
2022/05/26 00:09:23;;;;;;;4.70;0.65;;;13.60;98.30;;;;;;5086436;28;20108;-70
2022/05/26 00:11:49;;;;;;;2.22;0.40;;;13.50;98.40;;;;;;5094262;28;20039;-70
2022/05/26 00:14:15;;;;;;;2.75;0.43;;;13.50;98.50;;;;;;5094203;28;20035;-70
2022/05/26 00:16:44;;;;;;;1.52;0.40;;;13.50;98.60;;;;;;5094341;28;20127;-70
2022/05/26 00:19:12;;;;;;;1.05;0.47;;;13.60;98.40;;;;;;5094631;28;20040;-70
2022/05/26 00:21:39;;;;;;;3.67;0.70;;;13.60;98.60;;;;;;5094372;28;20039;-70
2022/05/26 00:24:05;;;;;;;4.13;0.52;;;13.60;98.70;;;;;;5092899;28;20097;-70
2022/05/26 00:26:31;;;;;;;2.33;0.60;;;13.60;98.70;;;;;;5094089;28;20036;-70
2022/05/26 00:28:57;;;;;;;3.33;0.55;;;13.50;98.80;;;;;;5094254;28;20040;-70
2022/05/26 00:31:23;;;;;;;2.22;0.57;;;13.50;98.80;;;;;;5094207;28;20074;-70
2022/05/26 00:33:49;;;;;;;3.92;0.75;;;13.60;98.70;;;;;;5094431;28;20040;-70
2022/05/26 00:36:16;;;;;;;1.60;0.43;;;13.60;98.80;;;;;;5094064;28;20449;-70
2022/05/26 00:38:42;;;;;;;7.70;0.75;;;13.60;98.70;;;;;;5084934;28;20040;-70
2022/05/26 00:41:12;;;;;;;5.15;0.88;;;13.50;98.70;;;;;;5073597;28;20040;-70
2022/05/26 00:43:42;;;;;;;3.13;0.57;;;13.50;98.90;;;;;;5073819;28;20079;-70
2022/05/26 00:46:40;;;;;;;1.88;0.60;;;13.60;98.80;;;;;;5073832;28;20041;-70
2022/05/26 00:49:13;;;;;;;2.50;0.43;;;13.50;99.10;;;;;;5040128;28;20044;-70
2022/05/26 00:51:39;;;;;;;2.85;0.60;;;13.50;99.10;;;;;;5106275;28;20080;-70
2022/05/26 00:54:13;;;;;;;3.30;0.65;;;13.50;99.10;;;;;;5075084;28;20036;-70
2022/05/26 00:56:52;;;;;;;4.32;0.52;;;13.50;99.20;;;;;;5078059;28;20041;-70
2022/05/26 00:59:40;;;;;;;3.38;0.47;;;13.50;99.50;;;;;;5078183;28;20047;-70
2022/05/26 01:02:06;;;;;;;1.70;0.40;;;13.50;99.30;;;;;;5077941;28;20127;-71
2022/05/26 01:04:40;;;;;;;3.30;0.45;;;13.50;99.40;;;;;;5077847;28;20040;-70
2022/05/26 01:07:15;;;;;;;1.45;0.50;;;13.40;99.60;;;;;;5077756;28;20036;-70
2022/05/26 01:09:41;;;;;;;1.60;0.40;;;13.40;99.60;;;;;;5082779;28;20098;-70
2022/05/26 01:12:08;;;;;;;2.42;0.70;;;13.50;99.40;;;;;;5091729;28;20040;-70
2022/05/26 01:14:40;;;;;;;4.10;0.70;;;13.50;99.40;;;;;;5097878;28;20127;-70
2022/05/26 01:17:20;;;;;;;2.88;0.43;;;13.40;99.50;;;;;;5097621;28;20044;-70
2022/05/26 01:19:59;;;;;;;1.88;0.60;;;13.40;99.40;;;;;;5097515;28;20036;-70
2022/05/26 01:22:25;;;;;;;4.35;0.70;;;13.40;99.60;;;;;;5097522;28;20048;-70
2022/05/26 01:24:59;;;;;;;4.07;1.00;;;13.30;99.70;;;;;;5097591;28;20471;-70
2022/05/26 01:27:40;;;;;;;2.22;0.55;;;13.30;99.80;;;;;;5097541;28;20040;-70
2022/05/26 01:30:09;;;;;;;;;;;13.30;99.90;;;;;;5097976;28;20426;-70
2022/05/26 01:33:09;;;;;;;1.88;0.60;;;13.30;99.90;;;;;;5097435;28;19908;-70
2022/05/26 01:35:55;;;;;;;2.42;0.63;;;13.30;99.90;;;;;;5097486;28;20036;-70
2022/05/26 01:38:38;;;;;;;3.08;0.55;;;13.30;99.90;;;;;;5097408;28;20195;-70
2022/05/26 01:41:36;;;;;;;2.88;0.60;;;13.30;99.90;;;;;;5087523;28;20048;-70
2022/05/26 01:44:15;;;;;;;2.58;0.68;;;13.20;99.90;;;;;;5076835;28;20174;-70
2022/05/26 01:46:45;;;;;;;0.70;0.35;;;13.20;99.90;;;;;;5076736;28;20446;-70
2022/05/26 01:49:41;;;;;;;2.03;0.63;;;13.20;99.90;;;;;;5076710;28;20127;-70
2022/05/26 01:52:16;;;;;;;1.42;0.50;;;13.20;99.90;;;;;;5076698;28;20048;-70
2022/05/26 01:55:03;;;;;;;0.73;0.35;;;13.20;99.90;;;;;;5076895;28;20126;-70
2022/05/26 01:57:45;;;;;;;2.53;0.50;;;13.20;99.90;;;;;;5076390;28;20036;-70
2022/05/26 02:00:17;;;;;;;1.13;0.40;;;13.10;99.90;;;;;;5076709;28;20047;-71
2022/05/26 02:02:52;;;;;;;1.00;0.30;;;13.10;99.90;;;;;;5076583;28;20052;-70
2022/05/26 02:05:24;;;;;;;1.80;0.35;;;13.10;99.90;;;;;;5076129;28;20488;-70
2022/05/26 02:08:03;;;;;;;0.88;0.35;;;13.10;99.90;;;;;;5075780;28;20044;-70
2022/05/26 02:10:36;;;;;;;2.67;0.65;;;13.10;99.90;;;;;;5081768;28;20064;-70
2022/05/26 02:13:12;;;;;;;2.83;0.60;;;13.10;99.90;;;;;;5094526;28;20048;-71
2022/05/26 02:16:02;;;;;;;3.08;0.50;;;13.00;99.90;;;;;;5096542;28;20044;-70
2022/05/26 02:18:57;;;;;;;1.60;0.65;;;13.00;99.90;;;;;;5096849;28;20119;-70
2022/05/26 02:21:45;;;;;;;3.00;0.70;;;13.00;99.90;;;;;;5090869;28;20504;-70
2022/05/26 02:24:22;;;;;;;3.83;0.63;;;13.00;99.90;;;;;;5090557;28;20094;-70
2022/05/26 02:26:48;;;;;;;5.93;0.70;;;12.90;99.90;;;;;;5076311;28;20679;-70
2022/05/26 02:32:00;;;;;;;4.22;0.55;;;12.90;99.90;;;;;;5076052;28;20035;-70
2022/05/26 02:34:26;;;;;;;2.17;0.70;;;12.90;99.90;;;;;;5075998;28;20131;-70
2022/05/26 02:36:56;;;;;;;3.05;0.70;;;12.90;99.90;;;;;;5075887;28;20044;-70
2022/05/26 02:39:22;;;;;;;1.88;0.50;;;12.90;99.90;;;;;;5075679;28;20041;-70
2022/05/26 02:41:48;;;;;;;2.30;0.47;;;12.90;99.90;;;;;;5080972;28;20044;-70
2022/05/26 02:44:14;;;;;;;3.85;0.50;;;12.80;99.90;;;;;;5095589;28;20032;-70
2022/05/26 02:46:50;;;;;;;2.20;0.70;;;12.70;99.90;;;;;;5096291;28;20039;-70
2022/05/26 02:49:59;;;;;;;2.13;0.82;;;12.70;99.90;;;;;;5096189;28;20032;-70
2022/05/26 02:52:28;;;;;;;1.65;0.50;;;12.80;99.90;;;;;;5076237;28;20092;-70
2022/05/26 02:54:57;;;;;;;4.55;0.75;;;12.60;99.90;;;;;;5096037;28;20039;-70
2022/05/26 02:57:50;;;;;;;4.32;0.70;;;12.70;99.90;;;;;;5095887;28;20101;-70
2022/05/26 03:00:41;;;;;;;1.10;0.60;;;12.70;99.90;;;;;;5095939;28;20047;-70
2022/05/26 03:03:27;;;;;;;2.78;0.98;;;12.70;99.90;;;;;;5095847;28;20063;-70
2022/05/26 03:06:06;;;;;;;2.70;0.63;;;12.70;99.90;;;;;;5095786;28;20039;-70
2022/05/26 03:08:37;;;;;;;3.80;0.60;;;12.60;99.90;;;;;;5095391;28;20098;-70
2022/05/26 03:11:16;;;;;;;;;;;12.60;99.90;;;;;;5093452;28;20036;-70
2022/05/26 03:13:41;;;;;;;3.42;0.40;;;12.60;99.90;;;;;;5080530;28;19955;-70
2022/05/26 03:16:08;;;;;;;1.15;0.47;;;12.60;99.90;;;;;;5075526;28;20080;-70
2022/05/26 03:18:34;;;;;;;1.42;0.68;;;12.50;99.90;;;;;;5074141;28;20039;-70
2022/05/26 03:21:01;;;;;;;2.85;0.50;;;12.50;99.90;;;;;;5075005;28;20407;-70
2022/05/26 03:23:27;;;;;;;3.80;0.60;;;12.50;99.90;;;;;;5074613;28;20135;-70
2022/05/26 03:25:57;;;;;;;1.55;0.70;;;12.50;99.90;;;;;;5074848;28;20479;-70
2022/05/26 03:28:30;;;;;;;2.97;0.70;;;12.40;99.90;;;;;;5075225;28;20515;-70
2022/05/26 03:30:56;;;;;;;0.80;0.50;;;12.50;99.90;;;;;;5073094;28;20036;-70
2022/05/26 03:33:22;;;;;;;1.50;0.70;;;12.40;99.90;;;;;;5072118;28;20522;-70
2022/05/26 03:41:22;;;;;;;2.60;0.70;;;12.40;99.90;;;;;;5074716;28;20040;-70
2022/05/26 03:43:54;;;;;;;2.08;0.63;;;12.40;99.90;;;;;;5080196;28;20086;-70
2022/05/26 03:46:20;;;;;;;6.00;0.68;;;12.30;99.90;;;;;;5054787;28;20045;-70
2022/05/26 03:48:46;;;;;;;1.83;0.60;;;12.30;99.90;;;;;;5054836;28;20037;-70
2022/05/26 03:51:11;;;;;;;3.35;0.55;;;12.30;99.90;;;;;;5054564;28;20048;-70
2022/05/26 03:53:37;;;;;;;2.15;0.55;;;12.30;99.90;;;;;;5054882;28;20045;-70
2022/05/26 03:56:05;;;;;;;3.05;0.60;;;12.40;99.90;;;;;;5054662;28;20124;-70
2022/05/26 03:58:32;;;;;;;9.15;1.23;;;12.30;99.90;;;;;;5054536;28;20037;-70
2022/05/26 04:01:03;;;;;;;2.05;0.38;;;12.30;99.90;;;;;;5054495;28;20044;-70
2022/05/26 04:03:28;;;;;;;1.95;0.68;;;12.20;99.90;;;;;;5054513;28;20079;-70
2022/05/26 04:05:55;;;;;;;2.65;0.50;;;12.20;99.90;;;;;;5054470;28;20044;-70
2022/05/26 04:08:21;;;;;;;3.47;0.80;;;12.20;99.90;;;;;;5054493;28;20045;-70
2022/05/26 04:10:50;;;;;;;3.88;0.70;;;12.20;99.90;;;;;;5054282;28;20079;-70
2022/05/26 04:13:16;;;;;;;1.33;0.50;;;12.20;99.90;;;;;;5070634;28;20039;-70
2022/05/26 04:15:42;;;;;;;2.67;0.70;;;12.20;99.90;;;;;;5086546;28;20544;-70
2022/05/26 04:18:08;;;;;;;1.77;0.50;;;12.20;99.90;;;;;;5073933;28;20040;-70
2022/05/26 04:20:34;;;;;;;5.60;1.27;;;12.20;99.90;;;;;;5074059;28;20044;-70
2022/05/26 04:22:59;;;;;;;2.30;0.60;;;12.20;99.90;;;;;;5074113;28;20055;-70
2022/05/26 04:25:25;;;;;;;3.17;0.60;;;12.20;99.90;;;;;;5074258;28;20150;-70
2022/05/26 04:27:53;;;;;;;2.55;0.73;;;12.20;99.90;;;;;;5074022;28;20499;-70
2022/05/26 04:30:19;;;;;;;4.47;0.50;;;12.20;99.90;;;;;;5073690;28;20047;-70
2022/05/26 04:32:45;;;;;;;3.10;0.57;;;12.20;99.90;;;;;;5073868;28;20592;-70
2022/05/26 04:35:11;;;;;;;1.02;0.50;;;12.20;99.90;;;;;;5073807;28;20028;-70
2022/05/26 04:37:37;;;;;;;1.13;0.60;;;12.20;99.90;;;;;;5073959;28;20090;-70
2022/05/26 04:40:05;;;;;;;1.92;0.65;;;12.20;99.90;;;;;;5074080;28;20032;-70
2022/05/26 04:42:31;;;;;;;2.95;0.55;;;12.20;99.90;;;;;;5074137;28;20471;-70
2022/05/26 04:44:58;;;;;;;2.97;0.57;;;12.20;99.90;;;;;;5082606;28;20120;-70
2022/05/26 04:47:23;;;;;;;0.70;0.60;;;12.20;99.90;;;;;;5094092;28;20044;-70
2022/05/26 04:49:49;;;;;;;2.08;0.60;;;12.20;99.90;;;;;;5094209;28;20487;-70
2022/05/26 04:52:18;;;;;;;4.32;0.85;;;12.20;99.90;;;;;;5093950;28;20109;-70
2022/05/26 04:54:45;;;;;;;1.33;0.45;;;12.20;99.90;;;;;;5093803;28;20485;-70
2022/05/26 04:57:12;;;;;;;2.83;0.68;;;12.20;99.90;;;;;;5093687;28;20047;-70
2022/05/26 04:59:39;;;;;;;2.17;1.00;;;12.30;99.90;;;;;;5093770;28;20032;-70
2022/05/26 05:02:09;;;;;;;4.07;1.08;;;12.30;99.90;;;;;;5093865;28;20056;-70
2022/05/26 05:04:34;;;;;;;1.17;0.73;;;12.40;99.90;;;;;;5094113;28;20433;-70
2022/05/26 05:07:00;;;;;;;2.95;0.40;;;12.40;99.90;;;;;;5093967;28;20089;-70
2022/05/26 05:09:26;;;;;;;4.38;0.82;;;12.40;99.90;;;;;;5094011;28;20044;-70
2022/05/26 05:11:52;;;;;;;1.60;0.80;;;12.60;99.90;;;;;;5093900;28;20044;-70
2022/05/26 05:14:19;;;;;;;2.92;0.98;;;12.60;99.90;;;;;;5084309;28;20044;-70
2022/05/26 05:16:45;;;;;;;7.53;0.82;;;12.70;99.90;;;;;;5091041;28;20108;-70
2022/05/26 05:19:17;;;;;;;3.63;0.70;;;12.80;99.90;;;;;;5093702;28;20043;-70
2022/05/26 05:22:01;;;;;;;4.45;0.60;;;13.10;99.90;;;;;;5072800;28;20048;-70
2022/05/26 05:24:45;;;;;;;6.82;0.70;;;13.20;99.90;;;;;;5073444;28;20053;-71
2022/05/26 05:27:34;;;;;;;3.40;0.90;;;13.40;99.90;;;;;;5073710;28;20551;-70
2022/05/26 05:30:06;;;;;;;3.03;0.63;;;13.70;99.90;;;;;;5073571;28;20404;-70
2022/05/26 05:32:50;;;;;;;3.00;0.77;;;13.80;99.90;;;;;;5072237;28;20039;-70
2022/05/26 05:35:24;;;;;;;4.05;0.85;;;14.20;99.90;;;;;;5074020;28;20041;-70
2022/05/26 05:37:50;;;;;;;2.53;0.50;;;14.40;99.90;;;;;;5073153;28;20049;-70
2022/05/26 05:40:16;;;;;;;0.82;0.50;;;14.50;99.90;;;;;;5073038;28;20455;-70
2022/05/26 05:42:42;;;;;;;2.25;0.90;;;14.60;99.90;;;;;;5076487;28;20060;-70
2022/05/26 05:45:08;;;;;;;1.05;0.57;;;14.80;99.90;;;;;;5083692;28;20528;-70
2022/05/26 05:47:34;;;;;;;6.07;0.75;;;15.00;99.90;;;;;;5097292;28;20533;-70
2022/05/26 05:50:00;;;;;;;11.15;0.88;;;14.90;99.90;;;;;;5097304;28;20044;-70
2022/05/26 05:52:26;;;;;;;2.75;0.43;;;15.00;99.90;;;;;;5097142;28;20051;-70
2022/05/26 05:54:55;;;;;;;1.45;0.70;;;15.20;99.90;;;;;;5097357;28;20500;-70
2022/05/26 05:57:21;;;;;;;2.67;0.88;;;15.50;99.90;;;;;;5097177;28;20040;-70
2022/05/26 05:59:47;;;;;;;1.95;0.57;;;15.60;99.90;;;;;;5097003;28;20047;-71
2022/05/26 06:02:13;;;;;;;2.38;0.60;;;15.80;99.90;;;;;;5097007;28;20048;-71
2022/05/26 06:04:42;;;;;;;5.57;1.10;;;15.50;99.90;;;;;;5097065;28;20027;-71
2022/05/26 06:07:19;;;;;;;2.17;0.80;;;15.30;99.90;;;;;;5097079;28;20044;-71
2022/05/26 06:09:47;;;;;;;3.38;0.80;;;15.10;99.90;;;;;;5093278;28;20399;-72
2022/05/26 06:12:13;;;;;;;5.15;0.80;;;14.70;99.90;;;;;;5079190;28;20051;-73
2022/05/26 06:14:42;;;;;;;2.95;0.77;;;15.00;99.90;;;;;;5089722;28;20104;-73
2022/05/26 06:17:15;;;;;;;1.60;0.77;;;15.00;99.90;;;;;;5066201;28;20119;-73
2022/05/26 06:19:42;;;;;;;2.22;0.65;;;15.10;99.90;;;;;;5073690;28;20028;-73
2022/05/26 06:22:09;;;;;;;3.38;0.82;;;15.40;99.90;;;;;;5076346;28;20044;-73
2022/05/26 06:24:37;;;;;;;6.53;0.90;;;15.70;99.90;;;;;;5075987;28;20086;-72
2022/05/26 06:29:49;;;;;;;2.42;0.75;;;16.10;99.90;;;;;;5076340;28;20491;-74
2022/05/26 06:29:49;;;;;;;5.00;0.82;;;16.10;99.90;;;;;;5076295;28;20045;-74
2022/05/26 06:37:45;;;;;;;2.28;0.90;;;17.00;99.90;;;;;;5075955;28;20043;-75
2022/05/26 06:40:14;;;;;;;4.72;1.05;;;17.10;99.90;;;;;;5075944;28;20041;-74
2022/05/26 06:42:40;;;;;;;4.47;0.90;;;17.50;99.90;;;;;;5075941;28;20090;-76
2022/05/26 06:45:06;;;;;;;3.95;0.73;;;17.30;99.90;;;;;;5076112;28;20150;-77
2022/05/26 06:47:32;;;;;;;6.07;1.20;;;17.90;99.90;;;;;;5075777;28;20131;-76
2022/05/26 06:49:59;;;;;;;6.82;0.98;;;;;;;;;;5081067;28;20036;-73
2022/05/26 06:52:25;;;;;;;5.53;1.20;;;18.00;99.80;;;;;;5085954;28;20044;-73
2022/05/26 06:54:51;;;;;;;4.88;0.90;;;18.40;99.90;;;;;;5074634;28;20041;-74
2022/05/26 06:57:17;;;;;;;5.03;0.80;;;18.70;99.60;;;;;;5075871;28;20094;-74
2022/05/26 06:59:43;;;;;;;9.68;1.02;;;18.50;98.90;;;;;;5075632;28;20049;-73
2022/05/26 07:02:12;;;;;;;3.65;0.77;;;18.90;99.90;;;;;;5080556;28;20071;-72
2022/05/26 07:04:40;;;;;;;2.92;1.23;;;19.20;99.10;;;;;;5087461;28;20044;-71
2022/05/26 07:07:07;;;;;;;4.88;1.00;;;19.40;99.70;;;;;;5076110;28;20131;-73
2022/05/26 07:09:34;;;;;;;4.63;0.90;;;19.20;98.00;;;;;;5075562;28;20143;-73
2022/05/26 07:12:00;;;;;;;9.13;1.10;;;19.40;99.20;;;;;;5069061;28;20106;-73
2022/05/26 07:14:26;;;;;;;9.63;5.22;;;19.60;98.30;;;;;;5074096;28;20033;-72
2022/05/26 07:16:53;;;;;;;3.40;1.70;;;19.80;98.60;;;;;;5072030;28;20488;-71
2022/05/26 07:19:19;;;;;;;3.47;0.77;;;19.70;99.10;;;;;;5098651;27;20072;-73
2022/05/26 07:21:49;;;;;;;4.18;0.73;;;19.90;98.50;;;;;;5067272;28;20029;-75
2022/05/26 07:24:19;;;;;;;4.65;1.05;;;20.10;97.70;;;;;;5063756;28;20051;-75
2022/05/26 07:26:54;;;;;;;8.20;1.17;;;20.40;98.60;;;;;;5065238;28;20381;-73
2022/05/26 07:29:41;;;;;;;7.82;0.85;;;20.40;97.70;;;;;;5065363;28;20056;-75
2022/05/26 07:32:09;;;;;;;2.45;0.82;;;20.00;97.20;;;;;;5060917;28;20070;-75
2022/05/26 07:34:38;;;;;;;3.85;1.25;;;20.30;97.90;;;;;;5071759;28;20048;-74
2022/05/26 07:42:39;;;;;;;4.10;0.95;;;20.30;95.20;;;;;;5070848;28;20052;-73
2022/05/26 07:45:08;;;;;;;7.00;0.98;;;20.50;96.10;;;;;;5054725;28;20044;-73
2022/05/26 07:47:36;;;;;;;2.90;0.80;;;20.80;97.00;;;;;;5072512;28;20438;-73
2022/05/26 07:50:09;;;;;;;1.63;0.70;;;21.30;95.70;;;;;;5072127;28;20036;-73
2022/05/26 07:52:36;;;;;;;2.30;0.70;;;21.30;93.90;;;;;;5068538;28;20052;-74
2022/05/26 07:55:06;;;;;;;4.63;0.82;;;20.90;92.80;;;;;;5069886;28;20634;-74
2022/05/26 07:57:32;;;;;;;1.75;0.40;;;20.10;93.10;;;;;;5070629;28;20059;-73
2022/05/26 07:59:59;;;;;;;2.58;0.52;;;20.30;95.00;;;;;;5067644;28;20036;-73
2022/05/26 08:02:26;;;;;;;4.50;0.93;;;21.10;93.20;;;;;;5068228;28;20048;-72
2022/05/26 08:04:54;;;;;;;4.28;0.75;;;21.10;93.90;;;;;;5069677;28;20048;-73
2022/05/26 08:07:22;;;;;;;4.97;1.30;;;21.40;94.60;;;;;;5100890;28;20045;-73
2022/05/26 08:09:48;;;;;;;2.13;0.52;;;21.10;92.10;;;;;;5070178;28;20036;-71
2022/05/26 08:12:17;;;;;;;12.88;1.05;;;21.40;91.00;;;;;;5070253;28;20049;-72
2022/05/26 08:14:44;;;;;;;3.58;0.80;;;21.70;91.90;;;;;;5070365;28;20420;-75
2022/05/26 08:17:18;;;;;;;4.68;1.20;;;21.20;91.10;;;;;;5070467;28;20044;-76
2022/05/26 08:19:45;;;;;;;4.18;0.73;;;20.70;91.30;;;;;;5067154;28;20109;-72
2022/05/26 08:22:17;;;;;;;4.68;0.60;;;20.40;91.60;;;;;;5068129;28;20064;-71
2022/05/26 08:24:56;;;;;;;4.85;0.60;;;20.60;92.30;;;;;;5068468;28;20044;-73
2022/05/26 08:27:23;;;;;;;3.90;0.60;;;21.10;90.20;;;;;;5068223;28;20089;-72
2022/05/26 08:29:49;;;;;;;5.68;0.57;;;21.00;91.60;;;;;;5051262;28;20109;-74
2022/05/26 08:32:19;;;;;;;3.70;0.57;;;21.10;91.00;;;;;;5050749;28;20040;-72
2022/05/26 08:34:46;;;;;;;4.15;0.70;;;;;;;;;;5051919;28;20064;-73
2022/05/26 08:37:21;;;;;;;1.90;0.70;;;19.70;90.80;;;;;;5057354;28;20523;-73
2022/05/26 08:39:48;;;;;;;1.67;0.70;;;19.30;91.00;;;;;;5061177;28;20045;-70
2022/05/26 08:42:23;;;;;;;2.88;0.95;;;19.40;92.10;;;;;;5070414;28;20079;-71
2022/05/26 08:44:55;;;;;;;3.28;0.90;;;19.10;91.80;;;;;;5063231;28;20044;-72
2022/05/26 08:47:30;;;;;;;2.78;0.70;;;18.60;91.60;;;;;;5053627;28;20037;-73
2022/05/26 08:50:13;;;;;;;3.13;0.75;;;18.30;92.80;;;;;;5048045;28;20090;-73
2022/05/26 08:52:58;;;;;;;5.50;0.70;;;18.30;93.30;;;;;;5050866;28;20075;-72
2022/05/26 08:55:31;;;;;;;4.45;0.75;;;18.50;92.80;;;;;;5051902;28;20047;-73
2022/05/26 08:58:08;;;;;;;2.35;0.68;;;18.70;93.30;;;;;;5052675;28;20033;-73
2022/05/26 09:00:37;;;;;;;2.40;0.90;;;19.10;94.10;;;;;;5081177;28;20101;-72
2022/05/26 09:03:25;;;;;;;2.72;1.23;;;18.90;93.30;;;;;;5070838;28;20056;-73
2022/05/26 09:06:10;;;;;;;5.55;1.83;;;18.80;93.90;;;;;;5067249;28;20116;-71
2022/05/26 09:14:19;;;;;;;3.75;0.73;;;19.10;92.80;;;;;;5072442;28;20041;-71
2022/05/26 09:16:58;;;;;;;6.38;1.10;;;18.40;96.20;;;;;;5071050;28;20040;-71
2022/05/26 09:19:30;;;;;;;2.50;0.60;;;18.50;93.80;;;;;;5067154;28;20036;-72
2022/05/26 09:21:59;;;;;;;3.08;0.80;;;18.60;94.10;;;;;;5074080;28;20044;-71
2022/05/26 09:24:39;;;;;;;3.38;0.70;;;18.20;93.80;;;;;;5072142;28;20045;-72
2022/05/26 09:27:39;;;;;;;3.33;0.80;;;18.60;94.00;;;;;;5072935;28;20500;-71
2022/05/26 09:30:23;;;;;;;13.52;6.85;;;18.60;93.80;;;;;;5026772;28;20074;-71
2022/05/26 09:32:53;;;;;;;4.53;1.33;;;18.60;94.20;;;;;;5073504;28;20048;-72
2022/05/26 09:35:20;;;;;;;5.95;2.40;;;18.40;93.90;;;;;;5072208;28;20044;-72
2022/05/26 09:37:50;;;;;;;3.33;0.80;;;18.10;94.70;;;;;;5074485;28;20513;-74
2022/05/26 09:40:22;;;;;;;3.67;0.70;;;18.30;94.90;;;;;;5073285;28;20455;-73
2022/05/26 09:43:04;;;;;;;1.92;0.68;;;18.40;93.70;;;;;;5074525;28;20063;-72
2022/05/26 09:45:42;;;;;;;5.15;0.93;;;18.30;93.90;;;;;;5074498;28;20033;-71
2022/05/26 09:48:26;;;;;;;3.35;0.70;;;18.30;96.50;;;;;;5072823;28;20094;-73
2022/05/26 09:51:07;;;;;;;3.03;0.70;;;18.50;95.00;;;;;;5074422;28;20547;-73
2022/05/26 09:53:41;;;;;;;2.40;0.40;;;18.50;94.10;;;;;;5075607;28;20090;-72
2022/05/26 09:56:13;;;;;;;4.82;0.70;;;18.60;94.70;;;;;;5072659;28;20053;-72
2022/05/26 09:58:49;;;;;;;0.73;0.57;;;18.50;94.20;;;;;;5073616;28;20101;-72
2022/05/26 10:01:24;;;;;;;2.45;0.70;;;18.00;94.80;;;;;;5073541;28;20044;-71
2022/05/26 10:03:51;;;;;;;2.58;0.52;;;18.00;94.40;;;;;;5074513;28;20048;-72
2022/05/26 10:06:37;;;;;;;3.65;0.77;;;17.80;94.80;;;;;;5074706;28;20042;-72
2022/05/26 10:09:36;;;;;;;3.33;0.60;;;18.10;94.70;;;;;;5064849;28;20037;-71
2022/05/26 10:12:24;;;;;;;1.95;0.52;;;18.60;95.80;;;;;;5057067;28;20124;-72
2022/05/26 10:14:58;;;;;;;2.45;0.80;;;18.30;94.40;;;;;;5072023;28;20040;-72
2022/05/26 10:17:46;;;;;;;4.53;0.70;;;18.60;94.50;;;;;;5054204;28;20045;-72
2022/05/26 10:20:38;;;;;;;4.80;1.00;;;18.50;94.20;;;;;;5054900;28;20171;-72
2022/05/26 10:23:51;;;;;;;2.30;0.70;;;18.50;94.80;;;;;;5053897;28;20523;-72
2022/05/26 10:26:39;;;;;;;5.90;0.63;;;18.60;94.60;;;;;;5058633;28;20504;-71
2022/05/26 10:29:25;;;;;;;2.58;0.93;;;18.80;94.00;;;;;;5066268;28;20062;-73
2022/05/26 10:32:08;;;;;;;1.90;0.60;;;18.80;95.00;;;;;;5073776;28;20565;-71
2022/05/26 10:35:00;;;;;;;1.75;0.63;;;18.30;94.60;;;;;;5073906;28;20040;-73
2022/05/26 10:37:48;;;;;;;3.67;0.82;;;18.00;95.20;;;;;;5073830;28;20033;-72
2022/05/26 10:40:31;;;;;;;4.10;0.70;;;17.80;95.00;;;;;;5074929;28;20047;-72
2022/05/26 10:43:12;;;;;;;3.58;0.80;;;17.80;95.30;;;;;;5075376;28;20044;-72
2022/05/26 10:45:51;;;;;;;4.28;1.00;;;17.70;94.90;;;;;;5073863;28;20492;-72
2022/05/26 10:48:35;;;;;;;3.63;0.63;;;17.80;96.10;;;;;;5074834;28;20052;-72
2022/05/26 10:51:11;;;;;;;5.32;0.93;;;18.30;95.30;;;;;;5073576;28;20128;-73
2022/05/26 10:53:56;;;;;;;3.53;0.70;;;18.20;95.20;;;;;;5058421;28;20093;-72
2022/05/26 10:56:50;;;;;;;1.65;0.60;;;18.30;95.70;;;;;;5073119;28;20078;-72
2022/05/26 10:59:39;;;;;;;2.28;0.80;;;18.50;96.50;;;;;;5073221;28;20109;-72
2022/05/26 11:02:24;;;;;;;4.78;1.25;;;18.40;96.50;;;;;;5072827;28;20511;-72
2022/05/26 11:05:05;;;;;;;2.28;0.65;;;18.40;96.30;;;;;;5072929;28;20036;-72
2022/05/26 11:07:54;;;;;;;6.43;1.10;;;18.20;96.00;;;;;;5072618;28;20055;-72
2022/05/26 11:10:31;;;;;;;4.93;0.88;;;17.90;95.30;;;;;;5073195;28;20036;-72
2022/05/26 11:13:43;;;;;;;5.78;1.08;;;17.70;95.30;;;;;;5072529;28;20861;-72
2022/05/26 11:19:29;;;;;;;1.75;0.75;;;18.20;97.20;;;;;;5052244;28;20044;-71
2022/05/26 11:21:55;;;;;;;4.82;0.90;;;18.50;95.60;;;;;;5068586;28;20403;-72
2022/05/26 11:24:23;;;;;;;4.90;1.20;;;18.50;96.00;;;;;;5065736;28;20128;-72
2022/05/26 11:27:12;;;;;;;2.97;1.05;;;18.80;96.10;;;;;;5067789;28;20372;-72
2022/05/26 11:29:49;;;;;;;9.05;0.90;;;19.00;95.60;;;;;;5069218;28;20036;-72
2022/05/26 11:38:19;;;;;;;3.40;0.80;;;18.00;96.10;;;;;;5072116;28;20557;-71
2022/05/26 11:40:57;;;;;;;2.75;0.82;;;18.00;96.10;;;;;;5071852;28;20373;-72
2022/05/26 11:43:33;;;;;;;2.28;0.60;;;18.10;96.40;;;;;;5071893;28;20045;-72
2022/05/26 11:46:00;;;;;;;4.60;1.15;;;17.90;95.70;;;;;;5070739;28;20066;-72
2022/05/26 11:48:33;;;;;;;4.63;1.00;;;17.90;95.70;;;;;;5073070;28;20495;-72
2022/05/26 11:51:00;;;;;;;5.45;0.73;;;17.90;96.10;;;;;;5072335;28;20048;-72
2022/05/26 11:53:41;;;;;;;2.17;0.68;;;17.90;96.40;;;;;;5073778;28;20071;-72
2022/05/26 11:56:30;;;;;;;4.22;1.30;;;18.20;96.10;;;;;;5074173;28;20049;-71
2022/05/26 11:59:19;;;;;;;3.50;0.80;;;18.40;96.60;;;;;;5072285;28;20040;-72
2022/05/26 12:02:01;;;;;;;1.83;0.77;;;19.00;96.90;;;;;;5070665;28;20079;-72
2022/05/26 12:04:45;;;;;;;3.38;1.05;;;19.40;96.80;;;;;;5070774;28;20044;-72
2022/05/26 12:07:18;;;;;;;2.88;0.90;;;19.10;95.30;;;;;;5072184;28;20398;-72
2022/05/26 12:09:59;;;;;;;10.30;0.95;;;18.80;95.50;;;;;;5073279;28;20067;-72
2022/05/26 12:12:25;;;;;;;2.72;0.68;;;19.00;95.80;;;;;;5074002;28;20036;-71
2022/05/26 12:14:54;;;;;;;1.92;0.70;;;19.60;96.70;;;;;;5073399;28;20036;-72
2022/05/26 12:17:48;;;;;;;4.10;0.85;;;19.90;94.90;;;;;;5068596;28;20045;-72
2022/05/26 12:20:14;;;;;;;1.88;0.70;;;20.40;96.40;;;;;;5051221;28;20033;-72
2022/05/26 12:22:57;;;;;;;1.85;0.65;;;20.60;94.00;;;;;;5052100;28;20085;-72
2022/05/26 12:25:39;;;;;;;6.15;0.93;;;20.70;93.60;;;;;;5051836;28;20040;-72
2022/05/26 12:28:15;;;;;;;1.65;0.77;;;19.30;93.50;;;;;;5083695;28;20043;-72
2022/05/26 12:31:05;;;;;;;2.08;0.82;;;19.90;94.50;;;;;;5052284;28;20045;-72
2022/05/26 12:34:00;;;;;;;4.30;1.08;;;20.10;94.50;;;;;;5052157;28;20044;-72
2022/05/26 12:37:01;;;;;;;2.80;0.93;;;20.30;94.90;;;;;;5053539;28;20033;-72
2022/05/26 12:40:09;;;;;;;1.73;0.60;;;20.00;94.40;;;;;;5054466;28;20135;-72
2022/05/26 12:42:54;;;;;;;3.72;0.80;;;19.60;93.90;;;;;;5089340;28;20048;-73
2022/05/26 12:45:40;;;;;;;2.33;0.57;;;19.40;94.20;;;;;;5070954;28;20050;-73
2022/05/26 12:48:24;;;;;;;3.78;0.88;;;19.70;94.60;;;;;;5073353;28;20044;-72
2022/05/26 12:50:50;;;;;;;5.53;0.85;;;20.80;96.70;;;;;;5060260;28;20064;-73
2022/05/26 12:53:32;;;;;;;2.58;0.73;;;20.70;93.30;;;;;;5064421;28;20067;-72
2022/05/26 12:56:24;;;;;;;3.95;0.80;;;19.50;93.90;;;;;;5070917;28;20032;-72
2022/05/26 12:58:56;;;;;;;4.15;1.00;;;19.30;95.00;;;;;;5052984;28;20036;-72
2022/05/26 13:01:24;;;;;;;5.38;0.70;;;19.60;95.30;;;;;;5052515;28;20053;-73
2022/05/26 13:04:12;;;;;;;3.00;0.60;;;19.70;94.60;;;;;;5052590;28;20172;-73
2022/05/26 13:06:41;;;;;;;5.65;0.73;;;19.80;94.40;;;;;;5051469;28;20040;-72
2022/05/26 13:09:27;;;;;;;2.10;0.95;;;20.00;94.50;;;;;;5053008;28;20500;-72
2022/05/26 13:11:58;;;;;;;1.42;0.50;;;20.80;95.00;;;;;;5053601;28;20053;-73
2022/05/26 13:14:50;;;;;;;5.45;1.10;;;21.30;93.50;;;;;;5071902;28;20033;-73
2022/05/26 13:17:19;;;;;;;3.60;0.90;;;21.30;95.10;;;;;;5073622;28;20029;-73
2022/05/26 13:19:49;;;;;;;2.30;0.95;;;21.00;93.40;;;;;;5073828;28;20609;-73
2022/05/26 13:22:21;;;;;;;2.95;0.90;;;20.50;94.10;;;;;;5073719;28;20135;-73
2022/05/26 13:25:00;;;;;;;5.00;1.05;;;20.70;93.80;;;;;;5073652;28;20067;-73
2022/05/26 13:27:40;;;;;;;1.92;0.90;;;20.10;93.40;;;;;;5073558;28;20055;-73
2022/05/26 13:33:11;;;;;;;2.65;0.73;;;20.10;94.70;;;;;;5073627;28;20269;-73
2022/05/26 13:36:03;;;;;;;6.25;1.20;;;20.10;95.10;;;;;;5073597;28;20048;-73
2022/05/26 13:38:43;;;;;;;4.88;0.95;;;20.10;93.60;;;;;;5072635;28;20396;-73
2022/05/26 13:41:13;;;;;;;4.20;1.33;;;20.10;94.00;;;;;;5073518;28;20095;-72
2022/05/26 13:43:43;;;;;;;1.10;0.73;;;19.60;94.60;;;;;;5073260;28;20052;-72
2022/05/26 13:46:09;;;;;;;7.00;1.10;;;19.60;94.20;;;;;;5072831;28;20060;-72
2022/05/26 13:48:45;;;;;;;2.08;0.80;;;19.40;93.90;;;;;;5073183;28;20037;-72
2022/05/26 13:51:40;;;;;;;2.22;0.80;;;19.40;94.90;;;;;;5073294;28;20380;-72
2022/05/26 13:54:20;;;;;;;3.15;0.80;;;19.40;94.70;;;;;;5073404;28;20074;-72
2022/05/26 13:56:48;;;;;;;5.53;0.98;;;19.50;94.50;;;;;;5073212;28;20047;-72
2022/05/26 13:59:15;;;;;;;4.90;0.82;;;20.00;94.60;;;;;;5073186;28;20028;-72
2022/05/26 14:02:06;;;;;;;2.17;1.30;;;20.50;94.50;;;;;;5073565;28;20041;-73